sensor_id;sensor_type;location;lat;lon;timestamp;temperature;humidity
6210;DHT22;3138;52.550;13.148;2023-08-21T00:01:47;19.30;99.90
6210;DHT22;3138;52.550;13.148;2023-08-21T00:04:14;19.30;99.90
6210;DHT22;3138;52.550;13.148;2023-08-21T00:06:41;19.60;99.90
6210;DHT22;3138;52.550;13.148;2023-08-21T00:09:08;19.50;99.90
6210;DHT22;3138;52.550;13.148;2023-08-21T00:11:35;19.30;99.90
6210;DHT22;3138;52.550;13.148;2023-08-21T00:14:01;19.20;99.90
6210;DHT22;3138;52.550;13.148;2023-08-21T00:16:30;19.30;99.90
6210;DHT22;3138;52.550;13.148;2023-08-21T00:18:56;19.20;99.90
6210;DHT22;3138;52.550;13.148;2023-08-21T00:21:23;19.10;99.90
6210;DHT22;3138;52.550;13.148;2023-08-21T00:23:50;19.00;99.90
6210;DHT22;3138;52.550;13.148;2023-08-21T00:26:17;19.00;99.90
6210;DHT22;3138;52.550;13.148;2023-08-21T00:28:44;19.00;99.90
6210;DHT22;3138;52.550;13.148;2023-08-21T00:31:11;18.90;99.90
6210;DHT22;3138;52.550;13.148;2023-08-21T00:33:39;18.90;99.90
6210;DHT22;3138;52.550;13.148;2023-08-21T00:36:06;18.90;99.90
6210;DHT22;3138;52.550;13.148;2023-08-21T00:38:33;18.90;99.90
6210;DHT22;3138;52.550;13.148;2023-08-21T00:40:59;18.80;99.90
6210;DHT22;3138;52.550;13.148;2023-08-21T00:43:26;18.70;99.90
6210;DHT22;3138;52.550;13.148;2023-08-21T00:45:53;18.60;99.90
6210;DHT22;3138;52.550;13.148;2023-08-21T00:48:21;18.60;99.90
6210;DHT22;3138;52.550;13.148;2023-08-21T00:50:49;18.60;99.90
6210;DHT22;3138;52.550;13.148;2023-08-21T00:53:17;18.60;99.90
6210;DHT22;3138;52.550;13.148;2023-08-21T00:55:43;18.60;99.90
6210;DHT22;3138;52.550;13.148;2023-08-21T00:58:11;18.70;99.90
6210;DHT22;3138;52.550;13.148;2023-08-21T01:00:39;18.70;99.90
6210;DHT22;3138;52.550;13.148;2023-08-21T01:03:06;18.70;99.90
6210;DHT22;3138;52.550;13.148;2023-08-21T01:05:34;18.80;99.90
6210;DHT22;3138;52.550;13.148;2023-08-21T01:08:05;18.80;99.90
6210;DHT22;3138;52.550;13.148;2023-08-21T01:10:42;18.70;99.90
6210;DHT22;3138;52.550;13.148;2023-08-21T01:13:23;18.80;99.90
6210;DHT22;3138;52.550;13.148;2023-08-21T01:15:54;18.80;99.90
6210;DHT22;3138;52.550;13.148;2023-08-21T01:18:21;18.80;99.90
6210;DHT22;3138;52.550;13.148;2023-08-21T01:20:49;18.80;99.90
6210;DHT22;3138;52.550;13.148;2023-08-21T01:23:30;18.80;99.90
6210;DHT22;3138;52.550;13.148;2023-08-21T01:25:57;18.80;99.90
6210;DHT22;3138;52.550;13.148;2023-08-21T01:28:24;18.80;99.90
6210;DHT22;3138;52.550;13.148;2023-08-21T01:30:58;18.80;99.90
6210;DHT22;3138;52.550;13.148;2023-08-21T01:33:26;18.80;99.90
6210;DHT22;3138;52.550;13.148;2023-08-21T01:35:55;18.60;99.90
6210;DHT22;3138;52.550;13.148;2023-08-21T01:38:23;18.70;99.90
6210;DHT22;3138;52.550;13.148;2023-08-21T01:40:53;18.80;99.90
6210;DHT22;3138;52.550;13.148;2023-08-21T01:43:19;18.80;99.90
6210;DHT22;3138;52.550;13.148;2023-08-21T01:45:46;19.00;99.90
6210;DHT22;3138;52.550;13.148;2023-08-21T01:48:13;19.30;99.90
6210;DHT22;3138;52.550;13.148;2023-08-21T01:50:40;19.40;99.90
6210;DHT22;3138;52.550;13.148;2023-08-21T01:53:07;19.40;99.90
6210;DHT22;3138;52.550;13.148;2023-08-21T01:55:34;19.40;99.90
6210;DHT22;3138;52.550;13.148;2023-08-21T01:58:02;19.50;99.90
6210;DHT22;3138;52.550;13.148;2023-08-21T02:00:29;19.50;99.90
6210;DHT22;3138;52.550;13.148;2023-08-21T02:02:55;19.60;99.90
6210;DHT22;3138;52.550;13.148;2023-08-21T02:05:22;19.60;99.90
6210;DHT22;3138;52.550;13.148;2023-08-21T02:07:49;19.70;99.90
6210;DHT22;3138;52.550;13.148;2023-08-21T02:10:16;19.80;99.90
6210;DHT22;3138;52.550;13.148;2023-08-21T02:12:43;19.80;99.90
6210;DHT22;3138;52.550;13.148;2023-08-21T02:15:11;19.80;99.90
6210;DHT22;3138;52.550;13.148;2023-08-21T02:17:40;19.80;99.90
6210;DHT22;3138;52.550;13.148;2023-08-21T02:20:09;19.80;99.90
6210;DHT22;3138;52.550;13.148;2023-08-21T02:22:36;19.80;99.90
6210;DHT22;3138;52.550;13.148;2023-08-21T02:25:03;19.80;99.90
6210;DHT22;3138;52.550;13.148;2023-08-21T02:27:30;19.80;99.90
6210;DHT22;3138;52.550;13.148;2023-08-21T02:29:57;19.80;99.90
6210;DHT22;3138;52.550;13.148;2023-08-21T02:32:25;19.90;99.90
6210;DHT22;3138;52.550;13.148;2023-08-21T02:34:52;20.00;99.90
6210;DHT22;3138;52.550;13.148;2023-08-21T02:37:19;20.00;99.90
6210;DHT22;3138;52.550;13.148;2023-08-21T02:39:46;20.00;99.90
6210;DHT22;3138;52.550;13.148;2023-08-21T02:42:12;20.00;99.90
6210;DHT22;3138;52.550;13.148;2023-08-21T02:44:39;20.00;99.90
6210;DHT22;3138;52.550;13.148;2023-08-21T02:47:06;20.00;99.90
6210;DHT22;3138;52.550;13.148;2023-08-21T02:49:34;19.90;99.90
6210;DHT22;3138;52.550;13.148;2023-08-21T02:52:01;20.00;99.90
6210;DHT22;3138;52.550;13.148;2023-08-21T02:54:28;20.10;99.90
6210;DHT22;3138;52.550;13.148;2023-08-21T02:56:55;20.10;99.90
6210;DHT22;3138;52.550;13.148;2023-08-21T02:59:21;20.00;99.90
6210;DHT22;3138;52.550;13.148;2023-08-21T03:01:48;20.00;99.90
6210;DHT22;3138;52.550;13.148;2023-08-21T03:04:15;20.10;99.90
6210;DHT22;3138;52.550;13.148;2023-08-21T03:06:43;20.10;99.90
6210;DHT22;3138;52.550;13.148;2023-08-21T03:09:10;20.10;99.90
6210;DHT22;3138;52.550;13.148;2023-08-21T03:11:37;20.00;99.90
6210;DHT22;3138;52.550;13.148;2023-08-21T03:14:04;20.00;99.90
6210;DHT22;3138;52.550;13.148;2023-08-21T03:16:30;19.90;99.90
6210;DHT22;3138;52.550;13.148;2023-08-21T03:18:59;20.00;99.90
6210;DHT22;3138;52.550;13.148;2023-08-21T03:21:26;19.90;99.90
6210;DHT22;3138;52.550;13.148;2023-08-21T03:23:56;19.80;99.90
6210;DHT22;3138;52.550;13.148;2023-08-21T03:26:25;19.70;99.90
6210;DHT22;3138;52.550;13.148;2023-08-21T03:28:52;19.50;99.90
6210;DHT22;3138;52.550;13.148;2023-08-21T03:31:19;19.40;99.90
6210;DHT22;3138;52.550;13.148;2023-08-21T03:33:46;19.40;99.90
6210;DHT22;3138;52.550;13.148;2023-08-21T03:36:13;19.40;99.90
6210;DHT22;3138;52.550;13.148;2023-08-21T03:38:40;19.40;99.90
6210;DHT22;3138;52.550;13.148;2023-08-21T03:41:08;19.30;99.90
6210;DHT22;3138;52.550;13.148;2023-08-21T03:43:35;19.30;99.90
6210;DHT22;3138;52.550;13.148;2023-08-21T03:46:02;19.30;99.90
6210;DHT22;3138;52.550;13.148;2023-08-21T03:48:29;19.30;99.90
6210;DHT22;3138;52.550;13.148;2023-08-21T03:50:57;19.10;99.90
6210;DHT22;3138;52.550;13.148;2023-08-21T03:53:24;19.20;99.90
6210;DHT22;3138;52.550;13.148;2023-08-21T03:55:51;19.20;99.90
6210;DHT22;3138;52.550;13.148;2023-08-21T03:58:19;19.20;99.90
6210;DHT22;3138;52.550;13.148;2023-08-21T04:00:46;19.10;99.90
6210;DHT22;3138;52.550;13.148;2023-08-21T04:03:13;19.20;99.90
6210;DHT22;3138;52.550;13.148;2023-08-21T04:05:40;19.30;99.90
6210;DHT22;3138;52.550;13.148;2023-08-21T04:08:06;19.30;99.90
6210;DHT22;3138;52.550;13.148;2023-08-21T04:10:33;19.30;99.90
6210;DHT22;3138;52.550;13.148;2023-08-21T04:13:00;19.40;99.90
6210;DHT22;3138;52.550;13.148;2023-08-21T04:15:28;19.40;99.90
6210;DHT22;3138;52.550;13.148;2023-08-21T04:17:56;19.40;99.90
6210;DHT22;3138;52.550;13.148;2023-08-21T04:20:23;19.40;99.90
6210;DHT22;3138;52.550;13.148;2023-08-21T04:22:50;19.40;99.90
6210;DHT22;3138;52.550;13.148;2023-08-21T04:25:17;19.40;99.90
6210;DHT22;3138;52.550;13.148;2023-08-21T04:27:44;19.40;99.90
6210;DHT22;3138;52.550;13.148;2023-08-21T04:30:11;19.40;99.90
6210;DHT22;3138;52.550;13.148;2023-08-21T04:32:40;19.40;99.90
6210;DHT22;3138;52.550;13.148;2023-08-21T04:35:07;19.50;99.90
6210;DHT22;3138;52.550;13.148;2023-08-21T04:37:37;19.50;99.90
6210;DHT22;3138;52.550;13.148;2023-08-21T04:40:05;19.50;99.90
6210;DHT22;3138;52.550;13.148;2023-08-21T04:42:31;19.60;99.90
6210;DHT22;3138;52.550;13.148;2023-08-21T04:44:58;19.60;99.90
6210;DHT22;3138;52.550;13.148;2023-08-21T04:47:26;19.60;99.90
6210;DHT22;3138;52.550;13.148;2023-08-21T04:49:55;19.70;99.90
6210;DHT22;3138;52.550;13.148;2023-08-21T04:52:23;19.90;99.90
6210;DHT22;3138;52.550;13.148;2023-08-21T04:54:50;20.00;99.90
6210;DHT22;3138;52.550;13.148;2023-08-21T04:57:17;20.00;99.90
6210;DHT22;3138;52.550;13.148;2023-08-21T04:59:44;20.10;99.90
6210;DHT22;3138;52.550;13.148;2023-08-21T05:02:11;20.10;99.90
6210;DHT22;3138;52.550;13.148;2023-08-21T05:04:38;20.10;99.90
6210;DHT22;3138;52.550;13.148;2023-08-21T05:07:06;20.20;99.90
6210;DHT22;3138;52.550;13.148;2023-08-21T05:09:33;20.20;99.90
6210;DHT22;3138;52.550;13.148;2023-08-21T05:12:00;20.40;99.90
6210;DHT22;3138;52.550;13.148;2023-08-21T05:14:27;20.50;99.90
6210;DHT22;3138;52.550;13.148;2023-08-21T05:16:53;20.60;99.90
6210;DHT22;3138;52.550;13.148;2023-08-21T05:19:20;20.70;99.90
6210;DHT22;3138;52.550;13.148;2023-08-21T05:21:47;20.60;99.90
6210;DHT22;3138;52.550;13.148;2023-08-21T05:24:15;20.70;99.90
6210;DHT22;3138;52.550;13.148;2023-08-21T05:26:42;20.90;99.90
6210;DHT22;3138;52.550;13.148;2023-08-21T05:29:09;21.00;99.90
6210;DHT22;3138;52.550;13.148;2023-08-21T05:31:36;21.10;99.90
6210;DHT22;3138;52.550;13.148;2023-08-21T05:34:03;21.10;99.90
6210;DHT22;3138;52.550;13.148;2023-08-21T05:36:30;21.20;99.90
6210;DHT22;3138;52.550;13.148;2023-08-21T05:38:57;21.20;99.90
6210;DHT22;3138;52.550;13.148;2023-08-21T05:41:25;21.20;99.90
6210;DHT22;3138;52.550;13.148;2023-08-21T05:43:52;21.30;99.90
6210;DHT22;3138;52.550;13.148;2023-08-21T05:46:18;21.60;99.90
6210;DHT22;3138;52.550;13.148;2023-08-21T05:48:45;21.60;99.90
6210;DHT22;3138;52.550;13.148;2023-08-21T05:51:12;21.60;99.90
6210;DHT22;3138;52.550;13.148;2023-08-21T05:53:39;21.50;99.90
6210;DHT22;3138;52.550;13.148;2023-08-21T05:56:06;21.50;99.90
6210;DHT22;3138;52.550;13.148;2023-08-21T05:58:34;21.50;99.90
6210;DHT22;3138;52.550;13.148;2023-08-21T06:01:01;21.50;99.90
6210;DHT22;3138;52.550;13.148;2023-08-21T06:03:28;21.40;99.90
6210;DHT22;3138;52.550;13.148;2023-08-21T06:05:55;21.20;99.90
6210;DHT22;3138;52.550;13.148;2023-08-21T06:08:21;21.20;99.90
6210;DHT22;3138;52.550;13.148;2023-08-21T06:10:51;21.20;99.90
6210;DHT22;3138;52.550;13.148;2023-08-21T06:13:18;21.70;99.90
6210;DHT22;3138;52.550;13.148;2023-08-21T06:15:46;21.70;99.90
6210;DHT22;3138;52.550;13.148;2023-08-21T06:18:13;21.70;99.90
6210;DHT22;3138;52.550;13.148;2023-08-21T06:20:42;21.40;99.90
6210;DHT22;3138;52.550;13.148;2023-08-21T06:23:10;21.50;99.90
6210;DHT22;3138;52.550;13.148;2023-08-21T06:25:37;21.50;99.90
6210;DHT22;3138;52.550;13.148;2023-08-21T06:28:04;21.60;99.90
6210;DHT22;3138;52.550;13.148;2023-08-21T06:30:31;21.50;99.90
6210;DHT22;3138;52.550;13.148;2023-08-21T06:32:59;21.80;99.90
6210;DHT22;3138;52.550;13.148;2023-08-21T06:35:26;22.00;99.90
6210;DHT22;3138;52.550;13.148;2023-08-21T06:37:53;22.20;99.90
6210;DHT22;3138;52.550;13.148;2023-08-21T06:40:21;22.40;99.90
6210;DHT22;3138;52.550;13.148;2023-08-21T06:42:48;22.90;99.90
6210;DHT22;3138;52.550;13.148;2023-08-21T06:45:16;23.20;99.90
6210;DHT22;3138;52.550;13.148;2023-08-21T06:47:43;23.40;99.90
6210;DHT22;3138;52.550;13.148;2023-08-21T06:50:11;23.40;99.90
6210;DHT22;3138;52.550;13.148;2023-08-21T06:52:38;23.20;99.90
6210;DHT22;3138;52.550;13.148;2023-08-21T06:55:06;23.20;99.90
6210;DHT22;3138;52.550;13.148;2023-08-21T06:57:33;23.30;99.90
6210;DHT22;3138;52.550;13.148;2023-08-21T07:00:00;23.30;99.90
6210;DHT22;3138;52.550;13.148;2023-08-21T07:02:27;23.10;99.90
6210;DHT22;3138;52.550;13.148;2023-08-21T07:04:54;23.30;99.90
6210;DHT22;3138;52.550;13.148;2023-08-21T07:07:22;23.60;99.90
6210;DHT22;3138;52.550;13.148;2023-08-21T07:09:50;23.60;99.90
6210;DHT22;3138;52.550;13.148;2023-08-21T07:12:17;23.70;99.90
6210;DHT22;3138;52.550;13.148;2023-08-21T07:14:46;24.00;99.90
6210;DHT22;3138;52.550;13.148;2023-08-21T07:17:13;24.20;99.90
6210;DHT22;3138;52.550;13.148;2023-08-21T07:19:40;24.20;99.90
6210;DHT22;3138;52.550;13.148;2023-08-21T07:22:06;24.30;99.90
6210;DHT22;3138;52.550;13.148;2023-08-21T07:24:35;24.40;99.90
6210;DHT22;3138;52.550;13.148;2023-08-21T07:27:01;24.20;99.90
6210;DHT22;3138;52.550;13.148;2023-08-21T07:29:29;24.40;99.90
6210;DHT22;3138;52.550;13.148;2023-08-21T07:31:56;24.40;99.90
6210;DHT22;3138;52.550;13.148;2023-08-21T07:34:23;24.30;99.90
6210;DHT22;3138;52.550;13.148;2023-08-21T07:36:50;24.10;99.90
6210;DHT22;3138;52.550;13.148;2023-08-21T07:39:16;24.00;99.90
6210;DHT22;3138;52.550;13.148;2023-08-21T07:41:45;24.40;99.90
6210;DHT22;3138;52.550;13.148;2023-08-21T07:44:11;24.30;99.90
6210;DHT22;3138;52.550;13.148;2023-08-21T07:46:38;24.20;99.90
6210;DHT22;3138;52.550;13.148;2023-08-21T07:49:05;24.40;99.90
6210;DHT22;3138;52.550;13.148;2023-08-21T07:51:32;24.70;99.90
6210;DHT22;3138;52.550;13.148;2023-08-21T07:53:59;24.50;99.90
6210;DHT22;3138;52.550;13.148;2023-08-21T07:56:26;24.60;99.90
6210;DHT22;3138;52.550;13.148;2023-08-21T07:58:54;24.50;99.90
6210;DHT22;3138;52.550;13.148;2023-08-21T08:01:21;24.40;99.90
6210;DHT22;3138;52.550;13.148;2023-08-21T08:03:47;24.80;99.90
6210;DHT22;3138;52.550;13.148;2023-08-21T08:06:15;25.20;99.90
6210;DHT22;3138;52.550;13.148;2023-08-21T08:08:44;25.50;99.90
6210;DHT22;3138;52.550;13.148;2023-08-21T08:11:11;25.80;99.90
6210;DHT22;3138;52.550;13.148;2023-08-21T08:13:38;25.80;99.90
6210;DHT22;3138;52.550;13.148;2023-08-21T08:16:06;26.00;99.90
6210;DHT22;3138;52.550;13.148;2023-08-21T08:18:33;26.20;99.90
6210;DHT22;3138;52.550;13.148;2023-08-21T08:21:00;26.40;99.90
6210;DHT22;3138;52.550;13.148;2023-08-21T08:23:27;26.50;99.90
6210;DHT22;3138;52.550;13.148;2023-08-21T08:25:53;26.40;99.90
6210;DHT22;3138;52.550;13.148;2023-08-21T08:28:20;26.20;99.90
6210;DHT22;3138;52.550;13.148;2023-08-21T08:30:47;25.80;99.90
6210;DHT22;3138;52.550;13.148;2023-08-21T08:33:17;26.00;99.90
6210;DHT22;3138;52.550;13.148;2023-08-21T08:35:44;26.20;99.90
6210;DHT22;3138;52.550;13.148;2023-08-21T08:38:11;26.80;99.90
6210;DHT22;3138;52.550;13.148;2023-08-21T08:40:43;26.80;99.90
6210;DHT22;3138;52.550;13.148;2023-08-21T08:43:10;26.90;99.90
6210;DHT22;3138;52.550;13.148;2023-08-21T08:45:37;26.60;99.90
6210;DHT22;3138;52.550;13.148;2023-08-21T08:48:06;26.40;99.90
6210;DHT22;3138;52.550;13.148;2023-08-21T08:50:35;26.60;99.90
6210;DHT22;3138;52.550;13.148;2023-08-21T08:53:06;26.80;99.90
6210;DHT22;3138;52.550;13.148;2023-08-21T08:55:33;26.70;99.90
6210;DHT22;3138;52.550;13.148;2023-08-21T08:58:00;26.60;99.90
6210;DHT22;3138;52.550;13.148;2023-08-21T09:00:27;26.80;99.90
6210;DHT22;3138;52.550;13.148;2023-08-21T09:02:54;27.00;99.90
6210;DHT22;3138;52.550;13.148;2023-08-21T09:05:22;27.00;99.90
6210;DHT22;3138;52.550;13.148;2023-08-21T09:08:02;27.30;99.90
6210;DHT22;3138;52.550;13.148;2023-08-21T09:10:29;26.70;99.90
6210;DHT22;3138;52.550;13.148;2023-08-21T09:12:56;26.30;99.90
6210;DHT22;3138;52.550;13.148;2023-08-21T09:15:28;26.50;99.90
6210;DHT22;3138;52.550;13.148;2023-08-21T09:17:57;26.10;99.90
6210;DHT22;3138;52.550;13.148;2023-08-21T09:20:24;26.20;99.90
6210;DHT22;3138;52.550;13.148;2023-08-21T09:22:54;26.30;99.90
6210;DHT22;3138;52.550;13.148;2023-08-21T09:25:23;26.30;99.90
6210;DHT22;3138;52.550;13.148;2023-08-21T09:27:57;26.60;99.90
6210;DHT22;3138;52.550;13.148;2023-08-21T09:30:24;26.50;99.90
6210;DHT22;3138;52.550;13.148;2023-08-21T09:32:53;26.40;99.90
6210;DHT22;3138;52.550;13.148;2023-08-21T09:35:21;26.30;99.90
6210;DHT22;3138;52.550;13.148;2023-08-21T09:37:51;26.70;99.90
6210;DHT22;3138;52.550;13.148;2023-08-21T09:40:22;26.90;99.90
6210;DHT22;3138;52.550;13.148;2023-08-21T09:42:52;26.70;99.90
6210;DHT22;3138;52.550;13.148;2023-08-21T09:45:22;26.40;99.90
6210;DHT22;3138;52.550;13.148;2023-08-21T09:47:50;26.40;99.90
6210;DHT22;3138;52.550;13.148;2023-08-21T09:50:18;26.70;99.90
6210;DHT22;3138;52.550;13.148;2023-08-21T09:52:45;26.90;99.90
6210;DHT22;3138;52.550;13.148;2023-08-21T09:55:13;26.80;99.90
6210;DHT22;3138;52.550;13.148;2023-08-21T09:57:41;26.80;99.90
6210;DHT22;3138;52.550;13.148;2023-08-21T10:00:09;26.90;99.90
6210;DHT22;3138;52.550;13.148;2023-08-21T10:02:42;26.90;99.90
6210;DHT22;3138;52.550;13.148;2023-08-21T10:05:12;26.60;99.90
6210;DHT22;3138;52.550;13.148;2023-08-21T10:07:41;26.70;99.90
6210;DHT22;3138;52.550;13.148;2023-08-21T10:10:09;26.70;99.90
6210;DHT22;3138;52.550;13.148;2023-08-21T10:12:36;27.00;99.90
6210;DHT22;3138;52.550;13.148;2023-08-21T10:15:05;27.10;99.90
6210;DHT22;3138;52.550;13.148;2023-08-21T10:17:32;27.10;99.90
6210;DHT22;3138;52.550;13.148;2023-08-21T10:20:02;27.30;99.90
6210;DHT22;3138;52.550;13.148;2023-08-21T10:22:42;26.90;99.90
6210;DHT22;3138;52.550;13.148;2023-08-21T10:25:16;26.90;99.90
6210;DHT22;3138;52.550;13.148;2023-08-21T10:27:46;26.50;99.90
6210;DHT22;3138;52.550;13.148;2023-08-21T10:30:16;26.70;99.90
6210;DHT22;3138;52.550;13.148;2023-08-21T10:32:47;26.90;99.90
6210;DHT22;3138;52.550;13.148;2023-08-21T10:35:15;27.20;99.90
6210;DHT22;3138;52.550;13.148;2023-08-21T10:38:10;27.00;99.90
6210;DHT22;3138;52.550;13.148;2023-08-21T10:40:38;27.10;99.90
6210;DHT22;3138;52.550;13.148;2023-08-21T10:43:14;27.40;99.90
6210;DHT22;3138;52.550;13.148;2023-08-21T10:46:02;27.90;99.90
6210;DHT22;3138;52.550;13.148;2023-08-21T10:48:29;27.70;99.90
6210;DHT22;3138;52.550;13.148;2023-08-21T10:50:56;27.40;99.90
6210;DHT22;3138;52.550;13.148;2023-08-21T10:53:24;27.30;99.90
6210;DHT22;3138;52.550;13.148;2023-08-21T10:55:53;27.30;99.90
6210;DHT22;3138;52.550;13.148;2023-08-21T10:58:20;27.00;99.90
6210;DHT22;3138;52.550;13.148;2023-08-21T11:00:48;26.90;99.90
6210;DHT22;3138;52.550;13.148;2023-08-21T11:03:23;26.50;99.90
6210;DHT22;3138;52.550;13.148;2023-08-21T11:06:01;26.50;99.90
6210;DHT22;3138;52.550;13.148;2023-08-21T11:08:28;26.60;99.90
6210;DHT22;3138;52.550;13.148;2023-08-21T11:10:55;26.70;99.90
6210;DHT22;3138;52.550;13.148;2023-08-21T11:13:23;26.90;99.90
6210;DHT22;3138;52.550;13.148;2023-08-21T11:15:58;26.90;99.90
6210;DHT22;3138;52.550;13.148;2023-08-21T11:18:31;27.30;99.90
6210;DHT22;3138;52.550;13.148;2023-08-21T11:21:06;27.00;99.90
6210;DHT22;3138;52.550;13.148;2023-08-21T11:23:34;26.90;99.90
6210;DHT22;3138;52.550;13.148;2023-08-21T11:26:02;26.80;99.90
6210;DHT22;3138;52.550;13.148;2023-08-21T11:28:30;26.70;99.90
6210;DHT22;3138;52.550;13.148;2023-08-21T11:30:57;27.10;99.90
6210;DHT22;3138;52.550;13.148;2023-08-21T11:33:26;27.30;99.90
6210;DHT22;3138;52.550;13.148;2023-08-21T11:35:55;27.00;99.90
6210;DHT22;3138;52.550;13.148;2023-08-21T11:38:24;26.90;99.90
6210;DHT22;3138;52.550;13.148;2023-08-21T11:40:52;26.90;99.90
6210;DHT22;3138;52.550;13.148;2023-08-21T11:43:19;27.00;99.90
6210;DHT22;3138;52.550;13.148;2023-08-21T11:45:46;27.70;99.90
6210;DHT22;3138;52.550;13.148;2023-08-21T11:48:13;28.10;99.90
6210;DHT22;3138;52.550;13.148;2023-08-21T11:50:40;28.20;99.90
6210;DHT22;3138;52.550;13.148;2023-08-21T11:53:08;27.80;99.90
6210;DHT22;3138;52.550;13.148;2023-08-21T11:55:36;27.70;99.90
6210;DHT22;3138;52.550;13.148;2023-08-21T11:58:04;27.50;99.90
6210;DHT22;3138;52.550;13.148;2023-08-21T12:00:30;27.60;99.90
6210;DHT22;3138;52.550;13.148;2023-08-21T12:02:59;27.60;99.90
6210;DHT22;3138;52.550;13.148;2023-08-21T12:05:27;27.60;99.90
6210;DHT22;3138;52.550;13.148;2023-08-21T12:07:54;27.40;99.90
6210;DHT22;3138;52.550;13.148;2023-08-21T12:10:27;27.50;99.90
6210;DHT22;3138;52.550;13.148;2023-08-21T12:12:54;27.90;99.90
6210;DHT22;3138;52.550;13.148;2023-08-21T12:15:22;27.90;99.90
6210;DHT22;3138;52.550;13.148;2023-08-21T12:17:49;27.60;99.90
6210;DHT22;3138;52.550;13.148;2023-08-21T12:20:16;27.70;99.90
6210;DHT22;3138;52.550;13.148;2023-08-21T12:22:43;28.00;99.90
6210;DHT22;3138;52.550;13.148;2023-08-21T12:25:10;27.90;99.90
6210;DHT22;3138;52.550;13.148;2023-08-21T12:27:40;28.10;99.90
6210;DHT22;3138;52.550;13.148;2023-08-21T12:30:07;27.90;99.90
6210;DHT22;3138;52.550;13.148;2023-08-21T12:32:34;27.50;99.90
6210;DHT22;3138;52.550;13.148;2023-08-21T12:35:01;26.80;99.90
6210;DHT22;3138;52.550;13.148;2023-08-21T12:37:29;26.70;99.90
6210;DHT22;3138;52.550;13.148;2023-08-21T12:39:56;26.90;99.90
6210;DHT22;3138;52.550;13.148;2023-08-21T12:42:23;26.90;99.90
6210;DHT22;3138;52.550;13.148;2023-08-21T12:44:51;26.80;99.90
6210;DHT22;3138;52.550;13.148;2023-08-21T12:47:18;26.60;99.90
6210;DHT22;3138;52.550;13.148;2023-08-21T12:49:45;26.80;99.90
6210;DHT22;3138;52.550;13.148;2023-08-21T12:52:12;27.00;99.90
6210;DHT22;3138;52.550;13.148;2023-08-21T12:54:38;27.40;99.90
6210;DHT22;3138;52.550;13.148;2023-08-21T12:57:05;27.30;99.90
6210;DHT22;3138;52.550;13.148;2023-08-21T12:59:33;26.90;99.90
6210;DHT22;3138;52.550;13.148;2023-08-21T13:02:01;26.60;99.90
6210;DHT22;3138;52.550;13.148;2023-08-21T13:04:28;26.40;99.90
6210;DHT22;3138;52.550;13.148;2023-08-21T13:06:55;26.40;99.90
6210;DHT22;3138;52.550;13.148;2023-08-21T13:09:22;26.60;99.90
6210;DHT22;3138;52.550;13.148;2023-08-21T13:11:50;26.70;99.90
6210;DHT22;3138;52.550;13.148;2023-08-21T13:14:17;26.70;99.90
6210;DHT22;3138;52.550;13.148;2023-08-21T13:16:44;26.90;99.90
6210;DHT22;3138;52.550;13.148;2023-08-21T13:19:12;26.80;99.90
6210;DHT22;3138;52.550;13.148;2023-08-21T13:21:39;26.70;99.90
6210;DHT22;3138;52.550;13.148;2023-08-21T13:24:06;26.80;99.90
6210;DHT22;3138;52.550;13.148;2023-08-21T13:26:33;26.70;99.90
6210;DHT22;3138;52.550;13.148;2023-08-21T13:29:00;26.60;99.90
6210;DHT22;3138;52.550;13.148;2023-08-21T13:31:27;26.60;99.90
6210;DHT22;3138;52.550;13.148;2023-08-21T13:33:54;26.50;99.90
6210;DHT22;3138;52.550;13.148;2023-08-21T13:36:22;26.30;99.90
6210;DHT22;3138;52.550;13.148;2023-08-21T13:38:49;26.30;99.90
6210;DHT22;3138;52.550;13.148;2023-08-21T13:41:16;26.60;99.90
6210;DHT22;3138;52.550;13.148;2023-08-21T13:43:43;26.40;99.90
6210;DHT22;3138;52.550;13.148;2023-08-21T13:46:09;26.50;99.90
6210;DHT22;3138;52.550;13.148;2023-08-21T13:48:37;26.50;99.90
6210;DHT22;3138;52.550;13.148;2023-08-21T13:51:03;26.50;99.90
6210;DHT22;3138;52.550;13.148;2023-08-21T13:53:32;26.80;99.90
6210;DHT22;3138;52.550;13.148;2023-08-21T13:55:58;27.20;99.90
6210;DHT22;3138;52.550;13.148;2023-08-21T13:58:25;27.10;99.90
6210;DHT22;3138;52.550;13.148;2023-08-21T14:00:52;26.90;99.90
6210;DHT22;3138;52.550;13.148;2023-08-21T14:03:21;26.80;99.90
6210;DHT22;3138;52.550;13.148;2023-08-21T14:05:48;26.50;99.90
6210;DHT22;3138;52.550;13.148;2023-08-21T14:08:15;26.30;99.90
6210;DHT22;3138;52.550;13.148;2023-08-21T14:10:43;26.30;99.90
6210;DHT22;3138;52.550;13.148;2023-08-21T14:13:09;26.40;99.90
6210;DHT22;3138;52.550;13.148;2023-08-21T14:15:37;26.80;99.90
6210;DHT22;3138;52.550;13.148;2023-08-21T14:18:04;26.60;99.90
6210;DHT22;3138;52.550;13.148;2023-08-21T14:20:31;26.40;99.90
6210;DHT22;3138;52.550;13.148;2023-08-21T14:22:58;26.50;99.90
6210;DHT22;3138;52.550;13.148;2023-08-21T14:25:25;26.70;99.90
6210;DHT22;3138;52.550;13.148;2023-08-21T14:27:53;26.90;99.90
6210;DHT22;3138;52.550;13.148;2023-08-21T14:30:21;27.00;99.90
6210;DHT22;3138;52.550;13.148;2023-08-21T14:32:47;26.70;99.90
6210;DHT22;3138;52.550;13.148;2023-08-21T14:35:14;26.30;99.90
6210;DHT22;3138;52.550;13.148;2023-08-21T14:37:41;26.10;99.90
6210;DHT22;3138;52.550;13.148;2023-08-21T14:40:08;26.00;99.90
6210;DHT22;3138;52.550;13.148;2023-08-21T14:42:36;25.80;99.90
6210;DHT22;3138;52.550;13.148;2023-08-21T14:45:05;25.80;99.90
6210;DHT22;3138;52.550;13.148;2023-08-21T14:47:32;25.80;99.90
6210;DHT22;3138;52.550;13.148;2023-08-21T14:49:59;26.00;99.90
6210;DHT22;3138;52.550;13.148;2023-08-21T14:52:25;26.30;99.90
6210;DHT22;3138;52.550;13.148;2023-08-21T14:54:52;26.40;99.90
6210;DHT22;3138;52.550;13.148;2023-08-21T14:57:20;26.70;99.90
6210;DHT22;3138;52.550;13.148;2023-08-21T14:59:46;26.80;99.90
6210;DHT22;3138;52.550;13.148;2023-08-21T15:02:15;26.90;99.90
6210;DHT22;3138;52.550;13.148;2023-08-21T15:04:42;26.90;99.90
6210;DHT22;3138;52.550;13.148;2023-08-21T15:07:09;27.00;99.90
6210;DHT22;3138;52.550;13.148;2023-08-21T15:09:35;27.10;99.90
6210;DHT22;3138;52.550;13.148;2023-08-21T15:12:03;27.10;99.90
6210;DHT22;3138;52.550;13.148;2023-08-21T15:14:30;27.00;99.90
6210;DHT22;3138;52.550;13.148;2023-08-21T15:16:56;26.60;99.90
6210;DHT22;3138;52.550;13.148;2023-08-21T15:19:25;26.60;99.90
6210;DHT22;3138;52.550;13.148;2023-08-21T15:21:51;26.70;99.90
6210;DHT22;3138;52.550;13.148;2023-08-21T15:24:18;26.90;99.90
6210;DHT22;3138;52.550;13.148;2023-08-21T15:26:45;26.70;99.90
6210;DHT22;3138;52.550;13.148;2023-08-21T15:29:12;26.80;99.90
6210;DHT22;3138;52.550;13.148;2023-08-21T15:31:39;26.80;99.90
6210;DHT22;3138;52.550;13.148;2023-08-21T15:34:05;26.90;99.90
6210;DHT22;3138;52.550;13.148;2023-08-21T15:36:34;26.70;99.90
6210;DHT22;3138;52.550;13.148;2023-08-21T15:39:01;26.60;99.90
6210;DHT22;3138;52.550;13.148;2023-08-21T15:41:29;26.60;99.90
6210;DHT22;3138;52.550;13.148;2023-08-21T15:43:55;26.70;99.90
6210;DHT22;3138;52.550;13.148;2023-08-21T15:46:22;26.60;99.90
6210;DHT22;3138;52.550;13.148;2023-08-21T15:48:49;26.50;99.90